Time;durP1;ratioP1;P1;durP2;ratioP2;P2;SDS_P1;SDS_P2;PMS_P1;PMS_P2;Temp;Humidity;BMP_temperature;BMP_pressure;BME280_temperature;BME280_humidity;BME280_pressure;Samples;Min_cycle;Max_cycle;Signal;HPM_P1;HPM_P2
2021/01/27 00:02:05;;;;;;;3.22;3.13;;;-0.20;99.90;;;;;;5069627;27;20226;-74
2021/01/27 00:04:32;;;;;;;3.90;3.70;;;-0.30;99.90;;;;;;5068073;28;20271;-75
2021/01/27 00:06:59;;;;;;;3.80;3.60;;;-0.30;99.90;;;;;;5068903;27;20227;-74
2021/01/27 00:09:25;;;;;;;3.67;3.47;;;-0.30;99.90;;;;;;5068048;27;20217;-74
2021/01/27 00:11:52;;;;;;;4.15;3.53;;;-0.40;99.90;;;;;;5068718;27;20230;-74
2021/01/27 00:14:19;;;;;;;3.97;3.75;;;-0.50;99.90;;;;;;5069063;27;20222;-75
2021/01/27 00:16:45;;;;;;;3.83;3.63;;;-0.50;99.90;;;;;;5066722;27;20257;-75
2021/01/27 00:19:13;;;;;;;3.92;3.72;;;-0.50;99.90;;;;;;5067227;27;20231;-75
2021/01/27 00:21:39;;;;;;;3.67;3.58;;;-0.40;99.90;;;;;;5067361;27;20226;-75
2021/01/27 00:24:07;;;;;;;3.60;3.40;;;-0.40;99.90;;;;;;5064901;27;20526;-76
2021/01/27 00:26:34;;;;;;;4.00;3.80;;;-0.40;99.90;;;;;;5089555;27;20201;-75
2021/01/27 00:29:01;;;;;;;3.42;3.22;;;-0.40;99.90;;;;;;5065803;27;20573;-75
2021/01/27 00:31:27;;;;;;;4.10;3.90;;;-0.40;99.90;;;;;;5068512;27;20218;-75
2021/01/27 00:33:54;;;;;;;3.88;3.67;;;-0.40;99.90;;;;;;5072474;27;20651;-75
2021/01/27 00:36:22;;;;;;;3.30;3.20;;;-0.30;99.90;;;;;;5066535;27;20222;-75
2021/01/27 00:38:48;;;;;;;3.35;3.25;;;-0.20;99.90;;;;;;5065838;27;20222;-75
2021/01/27 00:41:15;;;;;;;3.80;3.60;;;-0.20;99.90;;;;;;5068565;27;20235;-75
2021/01/27 00:43:42;;;;;;;3.40;3.30;;;-0.30;99.90;;;;;;5065143;27;21371;-75
2021/01/27 00:46:09;;;;;;;3.65;3.55;;;-0.40;99.90;;;;;;5073930;27;20720;-74
2021/01/27 00:48:35;;;;;;;3.20;3.10;;;-0.50;99.90;;;;;;5067012;27;20230;-76
2021/01/27 00:51:02;;;;;;;3.70;3.58;;;-0.50;99.90;;;;;;5063691;27;20226;-75
2021/01/27 00:53:29;;;;;;;3.08;2.97;;;-0.60;99.90;;;;;;5067924;27;20225;-76
2021/01/27 00:55:56;;;;;;;3.22;3.03;;;-0.50;99.90;;;;;;5066317;27;20775;-76
2021/01/27 00:58:23;;;;;;;3.40;3.30;;;-0.50;99.90;;;;;;5063382;27;20985;-76
2021/01/27 01:00:49;;;;;;;3.40;3.30;;;-0.50;99.90;;;;;;5062519;27;20737;-75
2021/01/27 01:03:16;;;;;;;3.53;3.42;;;-0.50;99.90;;;;;;5063327;27;20256;-76
2021/01/27 01:05:44;;;;;;;3.25;3.15;;;-0.50;99.90;;;;;;5065435;27;20218;-76
2021/01/27 01:08:15;;;;;;;3.30;3.20;;;-0.50;99.90;;;;;;5060025;27;20401;-76
2021/01/27 01:10:44;;;;;;;3.13;3.03;;;-0.50;99.90;;;;;;5065969;27;20608;-76
2021/01/27 01:13:13;;;;;;;3.60;3.40;;;-0.50;99.90;;;;;;5064143;27;20234;-76
2021/01/27 01:15:40;;;;;;;3.30;3.20;;;-0.50;99.90;;;;;;5060551;27;20221;-75
2021/01/27 01:18:07;;;;;;;3.38;3.28;;;-0.50;99.90;;;;;;5063793;27;20716;-76
2021/01/27 01:20:34;;;;;;;3.58;3.47;;;-0.50;99.90;;;;;;5063439;27;20222;-75
2021/01/27 01:23:01;;;;;;;3.25;3.15;;;-0.50;99.90;;;;;;5061885;27;20764;-75
2021/01/27 01:25:30;;;;;;;3.50;3.38;;;-0.60;99.90;;;;;;5065790;27;20236;-75
2021/01/27 01:27:59;;;;;;;3.28;3.17;;;-0.70;99.90;;;;;;5063874;27;20271;-75
2021/01/27 01:30:29;;;;;;;3.83;3.53;;;-0.70;99.90;;;;;;5067241;27;20283;-75
2021/01/27 01:32:57;;;;;;;3.70;3.60;;;-0.70;99.90;;;;;;5061796;27;20848;-75
2021/01/27 01:35:24;;;;;;;3.90;3.80;;;-0.70;99.90;;;;;;5058403;27;20219;-75
2021/01/27 01:37:51;;;;;;;3.50;3.40;;;-0.70;99.90;;;;;;5063218;27;20245;-75
2021/01/27 01:40:20;;;;;;;3.13;3.03;;;-0.70;99.90;;;;;;5061988;27;20743;-75
2021/01/27 01:42:47;;;;;;;3.63;3.53;;;-0.70;99.90;;;;;;5061003;27;20226;-75
2021/01/27 01:45:30;;;;;;;3.15;3.05;;;-0.70;99.90;;;;;;5065212;27;20225;-76
2021/01/27 01:48:01;;;;;;;3.15;3.05;;;-0.70;99.90;;;;;;5061057;27;20244;-75
2021/01/27 01:50:28;;;;;;;3.10;3.00;;;-0.70;99.90;;;;;;5064041;27;20650;-75
2021/01/27 01:52:56;;;;;;;3.72;3.53;;;-0.70;99.90;;;;;;5062272;27;20613;-76
2021/01/27 01:55:23;;;;;;;3.75;3.63;;;-0.70;99.90;;;;;;5065886;27;20715;-75
2021/01/27 01:57:52;;;;;;;3.30;3.20;;;-0.70;99.90;;;;;;5061381;27;20231;-75
2021/01/27 02:00:22;;;;;;;3.38;3.28;;;-0.60;99.90;;;;;;5063924;27;20291;-76
2021/01/27 02:02:50;;;;;;;3.35;3.25;;;-0.70;99.90;;;;;;5062680;27;20742;-75
2021/01/27 02:05:34;;;;;;;3.25;3.15;;;-0.70;99.90;;;;;;5063317;27;20218;-75
2021/01/27 02:08:01;;;;;;;3.22;3.13;;;-0.70;99.90;;;;;;5056905;27;20642;-75
2021/01/27 02:10:27;;;;;;;3.40;3.30;;;-0.70;99.90;;;;;;5061238;27;22537;-75
2021/01/27 02:13:30;;;;;;;2.83;2.72;;;-0.60;99.90;;;;;;5060727;27;20234;-75
2021/01/27 02:16:16;;;;;;;3.30;3.20;;;-0.70;99.90;;;;;;5052585;27;20260;-75
2021/01/27 02:18:57;;;;;;;3.70;3.50;;;-0.80;99.90;;;;;;5058095;27;20238;-78
2021/01/27 02:21:57;;;;;;;3.38;3.28;;;-0.90;99.90;;;;;;5060372;27;20226;-75
2021/01/27 02:24:55;;;;;;;3.33;3.22;;;-1.00;99.90;;;;;;5064310;27;20225;-77
2021/01/27 02:27:26;;;;;;;3.42;3.33;;;-1.00;99.90;;;;;;5016760;28;20554;-77
2021/01/27 02:30:22;;;;;;;3.38;3.28;;;-1.00;99.90;;;;;;5043383;28;20219;-77
2021/01/27 02:33:30;;;;;;;3.55;3.45;;;-1.00;99.90;;;;;;5044966;28;20312;-74
2021/01/27 02:36:07;;;;;;;3.20;3.10;;;-0.90;99.90;;;;;;5044532;28;20215;-77
2021/01/27 02:38:39;;;;;;;3.20;3.10;;;-0.90;99.90;;;;;;5052858;28;20705;-74
2021/01/27 02:41:11;;;;;;;3.30;3.20;;;-1.00;99.90;;;;;;5067439;28;20553;-74
2021/01/27 02:43:40;;;;;;;3.25;3.15;;;-1.10;99.90;;;;;;5050866;28;20211;-75
2021/01/27 02:46:12;;;;;;;3.33;3.22;;;-1.10;99.90;;;;;;5048066;28;20226;-75
2021/01/27 02:48:44;;;;;;;3.40;3.30;;;-1.10;99.90;;;;;;5060670;27;20232;-75
2021/01/27 02:51:19;;;;;;;3.65;3.55;;;-1.20;99.90;;;;;;5071878;27;20570;-75
2021/01/27 02:53:51;;;;;;;4.00;3.80;;;-1.20;99.90;;;;;;5071095;27;20221;-75
2021/01/27 02:56:24;;;;;;;3.85;3.65;;;-1.20;99.90;;;;;;5066639;27;20250;-74
2021/01/27 02:58:58;;;;;;;3.72;3.58;;;-1.30;99.90;;;;;;5065536;27;20229;-74
2021/01/27 03:01:34;;;;;;;3.88;3.67;;;-1.30;99.90;;;;;;5067510;27;20232;-74
2021/01/27 03:04:06;;;;;;;3.58;3.47;;;-1.40;99.90;;;;;;5069707;27;20302;-75
2021/01/27 03:06:36;;;;;;;3.85;3.65;;;-1.50;99.90;;;;;;5065031;28;20880;-75
2021/01/27 03:09:10;;;;;;;4.13;3.92;;;-1.50;99.90;;;;;;5065051;28;20234;-74
2021/01/27 03:11:37;;;;;;;3.58;3.38;;;-1.60;99.90;;;;;;5065649;28;20233;-75
2021/01/27 03:14:05;;;;;;;3.40;3.30;;;-1.60;99.90;;;;;;5068820;28;20844;-74
2021/01/27 03:16:34;;;;;;;3.63;3.50;;;-1.60;99.90;;;;;;5064236;28;20233;-75
2021/01/27 03:19:05;;;;;;;3.75;3.55;;;-1.60;99.90;;;;;;5068994;28;20616;-74
2021/01/27 03:21:38;;;;;;;3.60;3.50;;;-1.60;99.90;;;;;;5063385;28;20233;-76
2021/01/27 03:24:10;;;;;;;3.88;3.67;;;-1.60;99.90;;;;;;5066791;28;20771;-76
2021/01/27 03:26:44;;;;;;;3.88;3.78;;;-1.60;99.90;;;;;;5068653;28;20245;-75
2021/01/27 03:29:20;;;;;;;3.90;3.70;;;-1.50;99.90;;;;;;5064958;28;20216;-74
2021/01/27 03:31:47;;;;;;;3.42;3.33;;;-1.50;99.90;;;;;;5061899;28;20234;-77
2021/01/27 03:34:21;;;;;;;3.50;3.40;;;-1.50;99.90;;;;;;5062977;28;20223;-75
2021/01/27 03:37:05;;;;;;;3.80;3.65;;;-1.40;99.90;;;;;;5064047;28;20584;-77
2021/01/27 03:39:37;;;;;;;3.60;3.40;;;-1.40;99.90;;;;;;5069168;28;20236;-77
2021/01/27 03:42:09;;;;;;;3.53;3.42;;;-1.50;99.90;;;;;;5088466;28;20830;-78
2021/01/27 03:44:41;;;;;;;3.65;3.55;;;-1.50;99.90;;;;;;5047452;28;20584;-77
2021/01/27 03:47:11;;;;;;;3.95;3.78;;;-1.50;99.90;;;;;;5068534;27;20242;-77
2021/01/27 03:49:44;;;;;;;3.50;3.40;;;-1.50;99.90;;;;;;5061513;27;20467;-76
2021/01/27 03:52:18;;;;;;;3.63;3.42;;;-1.50;99.90;;;;;;5063528;27;20585;-77
2021/01/27 03:54:49;;;;;;;3.40;3.28;;;-1.50;99.90;;;;;;5061459;27;20879;-77
2021/01/27 03:57:23;;;;;;;3.70;3.60;;;-1.50;99.90;;;;;;5061603;27;20731;-76
2021/01/27 03:59:50;;;;;;;3.33;3.22;;;-1.50;99.90;;;;;;5063961;27;20219;-77
2021/01/27 04:02:18;;;;;;;3.25;3.15;;;-1.50;99.90;;;;;;5067671;27;20254;-77
2021/01/27 04:04:45;;;;;;;3.58;3.45;;;-1.50;99.90;;;;;;5062552;27;20238;-75
2021/01/27 04:07:13;;;;;;;3.90;3.70;;;-1.50;99.90;;;;;;5060158;27;20241;-74
2021/01/27 04:09:39;;;;;;;3.33;3.22;;;-1.50;99.90;;;;;;5062046;27;20215;-76
2021/01/27 04:12:07;;;;;;;3.58;3.38;;;-1.50;99.90;;;;;;5063209;27;20229;-78
2021/01/27 04:14:35;;;;;;;3.80;3.60;;;-1.50;99.90;;;;;;5061837;28;20685;-77
2021/01/27 04:17:11;;;;;;;3.90;3.70;;;-1.50;99.90;;;;;;5064834;27;20285;-76
2021/01/27 04:19:38;;;;;;;3.50;3.40;;;-1.50;99.90;;;;;;5066922;27;20696;-77
2021/01/27 04:22:05;;;;;;;3.70;3.50;;;-1.50;99.90;;;;;;5065468;27;20423;-75
2021/01/27 04:24:32;;;;;;;3.55;3.45;;;-1.50;99.90;;;;;;5063089;27;20237;-75
2021/01/27 04:26:59;;;;;;;3.55;3.45;;;-1.40;99.90;;;;;;5061902;27;20222;-76
2021/01/27 04:29:25;;;;;;;3.38;3.28;;;-1.40;99.90;;;;;;5062134;27;20283;-75
2021/01/27 04:31:53;;;;;;;3.38;3.28;;;-1.50;99.90;;;;;;5062052;27;20287;-77
2021/01/27 04:34:20;;;;;;;3.63;3.42;;;-1.50;99.90;;;;;;5063893;27;20218;-78
2021/01/27 04:36:47;;;;;;;3.55;3.35;;;-1.50;99.90;;;;;;5063552;27;20279;-78
2021/01/27 04:39:13;;;;;;;3.53;3.42;;;-1.50;99.90;;;;;;5059792;27;20253;-75
2021/01/27 04:41:41;;;;;;;3.90;3.70;;;-1.50;99.90;;;;;;5063523;27;20708;-77
2021/01/27 04:44:08;;;;;;;3.53;3.33;;;-1.50;99.90;;;;;;5065301;27;20287;-76
2021/01/27 04:46:37;;;;;;;3.75;3.55;;;-1.50;99.90;;;;;;5062173;28;20226;-77
2021/01/27 04:49:11;;;;;;;3.40;3.30;;;-1.50;99.90;;;;;;5060687;27;20226;-77
2021/01/27 04:51:49;;;;;;;4.15;3.90;;;-1.60;99.90;;;;;;5063118;27;20221;-77
2021/01/27 04:54:33;;;;;;;3.75;3.45;;;-1.60;99.90;;;;;;5062689;27;20217;-77
2021/01/27 04:57:41;;;;;;;3.90;3.80;;;-1.60;99.90;;;;;;5056006;27;20459;-74
2021/01/27 05:00:18;;;;;;;3.75;3.65;;;-1.60;99.90;;;;;;5050833;27;20222;-78
2021/01/27 05:02:53;;;;;;;3.30;3.20;;;-1.60;99.90;;;;;;5059475;27;20221;-77
2021/01/27 05:05:24;;;;;;;3.60;3.50;;;-1.60;99.90;;;;;;5063729;27;20252;-74
2021/01/27 05:07:59;;;;;;;4.00;3.80;;;-1.60;99.90;;;;;;5061676;27;20230;-77
2021/01/27 05:10:31;;;;;;;3.30;3.13;;;-1.60;99.90;;;;;;5071492;28;20221;-75
2021/01/27 05:13:05;;;;;;;3.83;3.53;;;-1.60;99.90;;;;;;5071539;27;20237;-77
2021/01/27 05:15:32;;;;;;;4.00;3.75;;;-1.60;99.90;;;;;;5065417;27;20220;-76
2021/01/27 05:17:59;;;;;;;4.07;3.88;;;-1.60;99.90;;;;;;5059348;28;20229;-75
2021/01/27 05:20:26;;;;;;;4.00;3.80;;;-1.60;99.90;;;;;;5062239;27;20237;-74
2021/01/27 05:22:52;;;;;;;3.88;3.72;;;-1.70;99.90;;;;;;5060918;27;20591;-74
2021/01/27 05:25:36;;;;;;;3.67;3.58;;;-1.60;99.90;;;;;;5063446;27;20214;-77
2021/01/27 05:28:04;;;;;;;3.67;3.38;;;-1.70;99.90;;;;;;5059194;27;20655;-75
2021/01/27 05:30:33;;;;;;;3.83;3.70;;;-1.70;99.90;;;;;;5061395;27;20312;-78
2021/01/27 05:33:01;;;;;;;3.58;3.45;;;-1.70;99.90;;;;;;5061949;27;20605;-77
2021/01/27 05:35:31;;;;;;;3.90;3.72;;;-1.70;99.90;;;;;;5062272;27;20252;-75
2021/01/27 05:37:59;;;;;;;3.55;3.45;;;-1.80;99.90;;;;;;5060750;27;20236;-76
2021/01/27 05:40:32;;;;;;;3.80;3.60;;;-1.70;99.90;;;;;;5062365;27;20221;-75
2021/01/27 05:43:00;;;;;;;3.85;3.70;;;-1.70;99.90;;;;;;5057583;27;20716;-75
2021/01/27 05:45:36;;;;;;;3.80;3.60;;;-1.80;99.90;;;;;;5064336;27;20214;-75
2021/01/27 05:48:26;;;;;;;3.72;3.58;;;-1.80;99.90;;;;;;5063014;27;20610;-77
2021/01/27 05:50:54;;;;;;;3.65;3.45;;;-1.80;99.90;;;;;;5060092;27;20210;-75
2021/01/27 05:53:23;;;;;;;3.67;3.58;;;-1.80;99.90;;;;;;5063062;27;20222;-74
2021/01/27 05:56:01;;;;;;;3.60;3.50;;;-1.80;99.90;;;;;;5063049;27;20222;-75
2021/01/27 05:58:30;;;;;;;3.92;3.75;;;-1.80;99.90;;;;;;5062325;28;20731;-75
2021/01/27 06:01:17;;;;;;;3.70;3.60;;;-1.80;99.90;;;;;;5063391;27;20218;-75
2021/01/27 06:03:57;;;;;;;4.10;3.83;;;-1.90;99.90;;;;;;5059230;27;20219;-75
2021/01/27 06:06:24;;;;;;;3.95;3.75;;;-1.90;99.90;;;;;;5065474;27;20676;-77
2021/01/27 06:08:53;;;;;;;3.63;3.42;;;-1.90;99.90;;;;;;5067388;27;20787;-77
2021/01/27 06:11:21;;;;;;;3.80;3.60;;;-2.00;99.90;;;;;;5064157;27;20582;-74
2021/01/27 06:13:49;;;;;;;4.15;3.95;;;-1.90;99.90;;;;;;5060704;27;20240;-77
2021/01/27 06:16:21;;;;;;;4.07;3.90;;;-1.90;99.90;;;;;;5066743;28;20222;-77
2021/01/27 06:18:48;;;;;;;4.10;3.90;;;-1.80;99.90;;;;;;5066313;27;20281;-76
2021/01/27 06:21:38;;;;;;;3.22;3.13;;;-1.80;99.90;;;;;;5066778;27;20634;-77
2021/01/27 06:24:36;;;;;;;3.58;3.47;;;-1.80;99.90;;;;;;5046365;28;20866;-77
2021/01/27 06:27:31;;;;;;;4.10;3.90;;;-1.90;99.90;;;;;;5064140;27;20288;-77
2021/01/27 06:30:28;;;;;;;4.13;3.95;;;-1.90;99.90;;;;;;5069384;27;20310;-77
2021/01/27 06:33:24;;;;;;;3.75;3.55;;;-1.80;99.90;;;;;;5062565;28;20732;-74
2021/01/27 06:36:03;;;;;;;3.72;3.63;;;-1.80;99.90;;;;;;5060480;28;20229;-76
2021/01/27 06:38:45;;;;;;;4.40;4.10;;;-1.70;99.90;;;;;;5061033;28;20291;-77
2021/01/27 06:41:35;;;;;;;3.60;3.50;;;-1.70;99.90;;;;;;5060687;28;20218;-75
2021/01/27 06:44:26;;;;;;;4.18;3.97;;;-1.70;99.90;;;;;;5064003;28;20226;-76
2021/01/27 06:47:23;;;;;;;5.40;5.00;;;-1.80;99.90;;;;;;5062621;28;21965;-76
2021/01/27 06:50:22;;;;;;;4.55;4.35;;;-1.80;99.90;;;;;;5062126;28;20271;-75
2021/01/27 06:53:31;;;;;;;5.70;5.30;;;-1.80;99.90;;;;;;5051494;28;20226;-74
2021/01/27 06:56:24;;;;;;;5.35;5.05;;;-1.80;99.90;;;;;;5051543;28;20230;-76
2021/01/27 06:59:39;;;;;;;5.80;5.50;;;-1.80;99.90;;;;;;5070939;28;20234;-76
2021/01/27 07:02:42;;;;;;;4.88;4.57;;;-1.80;99.90;;;;;;5072552;27;20241;-79
2021/01/27 07:05:31;;;;;;;5.32;4.93;;;-1.70;99.90;;;;;;5073330;27;20233;-74
2021/01/27 07:08:19;;;;;;;5.05;4.65;;;-1.70;99.90;;;;;;5061976;27;20237;-75
2021/01/27 07:11:05;;;;;;;4.57;4.28;;;-1.60;99.90;;;;;;5060896;27;20596;-76
2021/01/27 07:13:55;;;;;;;4.97;4.57;;;-1.60;99.90;;;;;;5061624;27;20356;-75
2021/01/27 07:16:36;;;;;;;5.40;5.00;;;-1.60;99.90;;;;;;5061587;27;20219;-75
2021/01/27 07:19:28;;;;;;;5.95;5.28;;;-1.50;99.90;;;;;;5063493;27;20233;-78
2021/01/27 07:22:02;;;;;;;6.15;5.65;;;-1.50;99.90;;;;;;5064702;27;20452;-76
2021/01/27 07:24:34;;;;;;;5.00;4.70;;;-1.40;99.90;;;;;;5063981;28;20234;-76
2021/01/27 07:27:06;;;;;;;4.85;4.55;;;-1.30;99.90;;;;;;5059982;27;20218;-76
2021/01/27 07:29:41;;;;;;;4.75;4.45;;;-1.30;99.90;;;;;;5059541;27;20712;-76
2021/01/27 07:32:15;;;;;;;4.40;4.20;;;-1.30;99.90;;;;;;5052526;27;20680;-76
2021/01/27 07:34:44;;;;;;;4.03;3.83;;;-1.30;99.90;;;;;;5062471;28;20224;-76
2021/01/27 07:37:18;;;;;;;4.70;4.40;;;-1.30;99.90;;;;;;5061343;27;20723;-75
2021/01/27 07:39:55;;;;;;;4.30;4.00;;;-1.20;99.90;;;;;;5061420;27;20700;-75
2021/01/27 07:42:26;;;;;;;4.40;4.10;;;-1.20;99.90;;;;;;5059554;28;20538;-76
2021/01/27 07:44:57;;;;;;;4.10;3.90;;;-1.20;99.90;;;;;;5060134;27;20214;-76
2021/01/27 07:47:46;;;;;;;4.30;4.10;;;-1.20;99.90;;;;;;5057999;27;20249;-75
2021/01/27 07:50:14;;;;;;;4.60;4.20;;;-1.20;99.90;;;;;;5074918;28;20217;-76
2021/01/27 07:52:52;;;;;;;4.10;3.80;;;-1.10;99.90;;;;;;5062402;27;20229;-75
2021/01/27 07:55:24;;;;;;;4.55;4.28;;;-1.10;99.90;;;;;;5059543;27;20221;-77
2021/01/27 07:57:58;;;;;;;4.28;4.07;;;-1.10;99.90;;;;;;5055953;27;20226;-75
2021/01/27 08:00:32;;;;;;;4.30;4.10;;;-1.10;99.90;;;;;;5077709;27;20232;-77
2021/01/27 08:03:16;;;;;;;4.20;3.95;;;-1.00;99.90;;;;;;5064277;27;20480;-78
2021/01/27 08:05:44;;;;;;;4.80;4.50;;;-1.00;99.90;;;;;;5059319;27;20219;-74
2021/01/27 08:08:14;;;;;;;4.38;4.07;;;-0.80;99.90;;;;;;5057376;27;20253;-75
2021/01/27 08:10:42;;;;;;;4.97;4.68;;;-0.70;99.90;;;;;;5053559;28;20222;-75
2021/01/27 08:13:17;;;;;;;5.15;4.82;;;-0.50;99.90;;;;;;5054331;27;20222;-75
2021/01/27 08:16:05;;;;;;;5.18;4.78;;;0.10;99.90;;;;;;5058422;27;20491;-77
2021/01/27 08:18:32;;;;;;;4.72;4.43;;;0.90;99.90;;;;;;5056521;28;20218;-75
2021/01/27 08:21:27;;;;;;;4.55;4.25;;;1.50;99.90;;;;;;5056141;28;20236;-76
2021/01/27 08:23:54;;;;;;;4.25;3.95;;;2.40;99.90;;;;;;5036706;28;20253;-74
2021/01/27 08:26:49;;;;;;;4.60;4.30;;;2.80;99.90;;;;;;5053481;28;20226;-77
2021/01/27 08:29:27;;;;;;;5.25;4.80;;;3.00;99.90;;;;;;5055059;28;20222;-76
2021/01/27 08:32:22;;;;;;;5.13;4.82;;;2.70;99.90;;;;;;5057973;28;20730;-76
2021/01/27 08:34:49;;;;;;;4.32;4.13;;;2.30;99.90;;;;;;5047453;28;20710;-76
2021/01/27 08:37:21;;;;;;;5.32;4.93;;;1.80;99.90;;;;;;5058340;28;20214;-77
2021/01/27 08:39:48;;;;;;;5.38;4.97;;;1.30;99.90;;;;;;5057893;28;20330;-77
2021/01/27 08:42:25;;;;;;;5.13;4.65;;;0.80;99.90;;;;;;5071162;28;20233;-79
2021/01/27 08:44:52;;;;;;;4.68;4.38;;;0.40;99.90;;;;;;5057303;28;20229;-75
2021/01/27 08:47:36;;;;;;;5.45;5.10;;;0.10;99.90;;;;;;5057339;28;20291;-77
2021/01/27 08:50:04;;;;;;;4.80;4.50;;;0.10;99.90;;;;;;5051240;28;20225;-77
2021/01/27 08:52:42;;;;;;;5.05;4.75;;;0.10;99.90;;;;;;5059285;28;20230;-77
2021/01/27 08:55:54;;;;;;;5.25;4.85;;;0.10;99.90;;;;;;5054877;28;20225;-76
2021/01/27 08:58:24;;;;;;;4.53;4.10;;;0.10;99.90;;;;;;5037152;28;20287;-75
2021/01/27 09:00:52;;;;;;;4.75;4.35;;;0.10;99.90;;;;;;5055772;28;20299;-77
2021/01/27 09:03:59;;;;;;;4.35;4.15;;;0.00;99.90;;;;;;5059346;28;20228;-75
2021/01/27 09:06:40;;;;;;;4.88;4.57;;;0.00;99.90;;;;;;5057855;28;20218;-75
2021/01/27 09:09:31;;;;;;;4.53;4.25;;;-0.10;99.90;;;;;;5060339;28;20221;-75
2021/01/27 09:12:00;;;;;;;4.88;4.55;;;0.00;99.90;;;;;;5055666;28;20297;-74
2021/01/27 09:14:28;;;;;;;4.63;4.15;;;0.20;99.90;;;;;;5056563;28;20596;-75
2021/01/27 09:16:56;;;;;;;4.25;4.05;;;0.30;99.90;;;;;;5051609;28;20272;-76
2021/01/27 09:19:24;;;;;;;4.88;4.57;;;0.40;99.90;;;;;;5048838;28;20256;-76
2021/01/27 09:22:13;;;;;;;4.97;4.68;;;0.50;99.90;;;;;;5051443;28;20886;-75
2021/01/27 09:24:44;;;;;;;6.38;4.28;;;0.50;99.90;;;;;;5053066;28;20225;-75
2021/01/27 09:27:16;;;;;;;4.95;4.65;;;0.40;99.90;;;;;;5060099;28;20229;-75
2021/01/27 09:29:43;;;;;;;4.88;4.50;;;0.40;99.90;;;;;;5057141;28;20233;-75
2021/01/27 09:32:16;;;;;;;4.53;4.22;;;0.30;99.90;;;;;;5056674;28;20420;-75
2021/01/27 09:34:44;;;;;;;4.60;4.30;;;0.30;99.90;;;;;;5067139;28;20226;-77
2021/01/27 09:37:16;;;;;;;5.07;4.63;;;0.40;99.90;;;;;;5063698;28;20218;-75
2021/01/27 09:39:50;;;;;;;4.93;4.63;;;0.60;99.90;;;;;;5055476;28;20222;-76
2021/01/27 09:42:20;;;;;;;5.07;4.68;;;0.70;99.90;;;;;;5058453;28;20218;-76
2021/01/27 09:44:52;;;;;;;6.70;5.78;;;0.80;99.90;;;;;;5059459;28;20314;-76
2021/01/27 09:47:19;;;;;;;6.80;6.20;;;0.90;99.90;;;;;;5057433;28;20233;-75
2021/01/27 09:49:49;;;;;;;6.20;5.57;;;0.90;99.90;;;;;;5060789;28;20676;-75
2021/01/27 09:52:18;;;;;;;5.80;5.30;;;1.00;99.90;;;;;;5059054;28;20226;-76
2021/01/27 09:54:47;;;;;;;7.22;5.90;;;1.10;99.90;;;;;;5056494;28;20268;-76
2021/01/27 09:57:17;;;;;;;6.40;5.80;;;1.10;99.90;;;;;;5060395;28;20214;-76
2021/01/27 09:59:48;;;;;;;7.53;5.90;;;1.20;99.90;;;;;;5063997;28;20252;-77
2021/01/27 10:02:24;;;;;;;5.85;5.45;;;1.20;99.90;;;;;;5051975;28;20222;-76
2021/01/27 10:04:51;;;;;;;6.10;5.55;;;1.10;99.90;;;;;;5055445;28;20258;-76
2021/01/27 10:07:25;;;;;;;5.55;5.15;;;1.10;99.90;;;;;;5061276;28;20218;-74
2021/01/27 10:09:53;;;;;;;6.95;5.15;;;1.20;99.90;;;;;;5064393;28;20265;-77
2021/01/27 10:12:25;;;;;;;5.97;5.57;;;1.20;99.90;;;;;;5067034;28;20245;-74
2021/01/27 10:15:10;;;;;;;6.78;6.18;;;1.20;99.90;;;;;;5055292;28;20226;-77
2021/01/27 10:17:37;;;;;;;7.57;6.13;;;1.20;99.90;;;;;;5055454;28;20214;-75
2021/01/27 10:20:24;;;;;;;6.10;5.70;;;1.20;99.90;;;;;;5056315;28;20226;-76
2021/01/27 10:23:00;;;;;;;6.22;5.72;;;1.10;99.90;;;;;;5060518;28;20218;-75
2021/01/27 10:25:30;;;;;;;6.82;6.32;;;1.20;99.90;;;;;;5058841;28;20218;-74
2021/01/27 10:28:07;;;;;;;6.57;5.97;;;1.30;99.90;;;;;;5075703;28;20236;-75
2021/01/27 10:30:44;;;;;;;5.43;4.93;;;1.30;99.90;;;;;;5054899;28;20233;-76
2021/01/27 10:33:30;;;;;;;5.95;5.45;;;1.20;99.90;;;;;;5051990;28;20277;-76
2021/01/27 10:35:57;;;;;;;6.10;5.55;;;1.10;99.90;;;;;;5059692;28;20221;-75
2021/01/27 10:38:25;;;;;;;6.05;5.60;;;1.10;99.90;;;;;;5056150;28;20229;-76
2021/01/27 10:41:11;;;;;;;6.03;5.07;;;1.00;99.90;;;;;;5065341;28;20224;-76
2021/01/27 10:43:37;;;;;;;5.50;5.10;;;1.00;99.90;;;;;;5059168;28;20468;-75
2021/01/27 10:46:23;;;;;;;5.53;5.13;;;1.10;99.90;;;;;;5065950;28;20229;-75
2021/01/27 10:48:50;;;;;;;5.30;4.90;;;1.10;99.90;;;;;;5065656;28;20226;-75
2021/01/27 10:51:16;;;;;;;6.00;5.50;;;1.10;99.90;;;;;;5062664;28;20237;-75
2021/01/27 10:53:45;;;;;;;5.40;5.00;;;1.10;99.90;;;;;;5065761;28;20214;-75
2021/01/27 10:56:14;;;;;;;5.63;5.22;;;1.00;99.90;;;;;;5066184;28;20719;-75
2021/01/27 10:58:40;;;;;;;5.45;5.05;;;1.00;99.90;;;;;;5066124;28;20230;-74
2021/01/27 11:01:07;;;;;;;5.78;5.38;;;1.00;99.90;;;;;;5059383;28;20279;-75
2021/01/27 11:03:34;;;;;;;4.60;4.30;;;1.00;99.90;;;;;;5062098;28;20692;-76
2021/01/27 11:06:01;;;;;;;5.20;4.82;;;1.00;99.90;;;;;;5064212;28;20600;-76
2021/01/27 11:08:31;;;;;;;4.95;4.57;;;1.00;99.90;;;;;;5054042;28;20238;-76
2021/01/27 11:11:00;;;;;;;7.05;6.45;;;1.00;99.90;;;;;;5049393;28;20218;-75
2021/01/27 11:13:27;;;;;;;9.63;8.15;;;1.10;99.90;;;;;;5064594;28;20222;-75
2021/01/27 11:15:54;;;;;;;8.43;7.72;;;1.20;99.90;;;;;;5060672;28;20692;-76
2021/01/27 11:18:21;;;;;;;7.25;6.65;;;1.10;99.90;;;;;;5062041;28;20221;-76
2021/01/27 11:20:48;;;;;;;6.70;6.20;;;1.00;99.90;;;;;;5077330;28;20209;-77
2021/01/27 11:23:15;;;;;;;8.00;7.30;;;1.00;99.90;;;;;;5065386;28;20237;-76
2021/01/27 11:25:41;;;;;;;7.95;7.25;;;1.00;99.90;;;;;;5060881;28;20231;-75
2021/01/27 11:28:09;;;;;;;6.68;6.18;;;1.00;99.90;;;;;;5060007;28;20238;-75
2021/01/27 11:30:36;;;;;;;7.10;6.32;;;1.00;99.90;;;;;;5059023;28;20601;-75
2021/01/27 11:33:03;;;;;;;7.15;6.45;;;1.20;99.90;;;;;;5063817;28;20230;-76
2021/01/27 11:35:30;;;;;;;6.90;6.40;;;1.30;99.90;;;;;;5061701;28;20228;-76
2021/01/27 11:37:56;;;;;;;7.45;6.55;;;1.30;99.90;;;;;;5055812;28;20222;-74
2021/01/27 11:40:25;;;;;;;6.60;6.10;;;1.40;99.90;;;;;;5056847;28;20222;-75
2021/01/27 11:42:52;;;;;;;6.13;5.63;;;1.40;99.90;;;;;;5058237;28;20525;-75
2021/01/27 11:45:21;;;;;;;6.15;5.75;;;1.40;99.90;;;;;;5056908;28;20229;-75
2021/01/27 11:47:49;;;;;;;6.10;5.60;;;1.40;99.90;;;;;;5066640;28;20241;-74
2021/01/27 11:50:16;;;;;;;6.38;5.88;;;1.50;99.90;;;;;;5062146;28;20237;-75
2021/01/27 11:52:44;;;;;;;6.18;5.57;;;1.70;99.90;;;;;;5069180;28;20253;-75
2021/01/27 11:55:11;;;;;;;6.00;5.60;;;1.70;99.90;;;;;;5058863;28;20226;-75
2021/01/27 11:57:38;;;;;;;7.43;5.93;;;1.70;99.90;;;;;;5066661;28;20231;-77
2021/01/27 12:00:06;;;;;;;6.03;5.63;;;1.80;99.90;;;;;;5070608;28;20230;-76
2021/01/27 12:02:33;;;;;;;5.90;5.45;;;1.90;99.90;;;;;;5068774;28;20252;-75
2021/01/27 12:05:00;;;;;;;6.30;5.75;;;1.90;99.90;;;;;;5064465;28;20221;-76
2021/01/27 12:07:26;;;;;;;7.15;6.50;;;1.90;99.90;;;;;;5066266;28;20229;-75
2021/01/27 12:09:53;;;;;;;7.45;6.50;;;1.90;99.90;;;;;;5067604;28;20226;-75
2021/01/27 12:12:19;;;;;;;7.43;6.72;;;1.90;99.90;;;;;;5066750;28;20299;-75
2021/01/27 12:14:46;;;;;;;6.10;5.53;;;1.80;99.90;;;;;;5068559;28;20218;-76
2021/01/27 12:17:13;;;;;;;6.88;5.90;;;1.90;99.90;;;;;;5055487;28;20940;-75
2021/01/27 12:19:40;;;;;;;9.40;6.13;;;1.80;99.90;;;;;;5054037;28;20229;-76
2021/01/27 12:22:07;;;;;;;6.50;5.90;;;1.80;99.90;;;;;;5059609;28;20222;-76
2021/01/27 12:24:33;;;;;;;6.80;6.20;;;1.80;99.90;;;;;;5058530;27;20270;-73
2021/01/27 12:27:00;;;;;;;6.88;6.13;;;1.80;99.90;;;;;;5059681;27;20589;-74
2021/01/27 12:29:27;;;;;;;6.60;6.00;;;1.80;99.90;;;;;;5059607;27;20233;-74
2021/01/27 12:31:53;;;;;;;6.20;5.70;;;1.70;99.90;;;;;;5057561;27;20226;-74
2021/01/27 12:34:20;;;;;;;6.32;5.75;;;1.60;99.90;;;;;;5057859;27;20225;-74
2021/01/27 12:36:48;;;;;;;6.05;5.55;;;1.60;99.90;;;;;;5055342;27;20222;-75
2021/01/27 12:39:15;;;;;;;5.80;5.30;;;1.50;99.90;;;;;;5059631;27;20218;-74
2021/01/27 12:41:42;;;;;;;5.85;4.68;;;1.50;99.90;;;;;;5066776;27;20279;-74
2021/01/27 12:44:08;;;;;;;5.60;5.18;;;1.50;99.90;;;;;;5062292;27;20230;-73
2021/01/27 12:46:35;;;;;;;5.07;4.72;;;1.50;99.90;;;;;;5062463;27;20222;-74
2021/01/27 12:49:02;;;;;;;5.20;4.80;;;1.40;99.90;;;;;;5055841;27;20222;-73
2021/01/27 12:51:29;;;;;;;5.38;4.88;;;1.40;99.90;;;;;;5057165;27;20232;-74
2021/01/27 12:53:57;;;;;;;6.15;5.65;;;1.30;99.90;;;;;;5057987;27;20222;-74
2021/01/27 12:56:24;;;;;;;5.85;5.35;;;1.30;99.90;;;;;;5057836;27;20214;-74
2021/01/27 12:58:51;;;;;;;5.90;5.40;;;1.30;99.90;;;;;;5055905;27;20445;-74
2021/01/27 13:01:20;;;;;;;5.53;5.03;;;1.30;99.90;;;;;;5059983;28;20226;-73
2021/01/27 13:03:46;;;;;;;6.03;5.53;;;1.30;99.90;;;;;;5063384;27;20445;-74
2021/01/27 13:06:13;;;;;;;5.63;5.15;;;1.30;99.90;;;;;;5063465;27;20230;-74
2021/01/27 13:08:40;;;;;;;6.93;6.18;;;1.20;99.90;;;;;;5065849;27;20245;-73
2021/01/27 13:11:08;;;;;;;7.25;6.60;;;1.20;99.90;;;;;;5058319;27;20222;-73
2021/01/27 13:13:34;;;;;;;7.18;6.57;;;1.10;99.90;;;;;;5056282;27;20218;-74
2021/01/27 13:16:01;;;;;;;7.10;6.40;;;1.10;99.90;;;;;;5061934;27;20229;-74
2021/01/27 13:18:27;;;;;;;7.32;6.63;;;1.10;99.90;;;;;;5060957;27;20225;-74
2021/01/27 13:20:54;;;;;;;7.38;6.60;;;1.10;99.90;;;;;;5065667;27;20229;-72